Time;durP1;ratioP1;P1;durP2;ratioP2;P2;SDS_P1;SDS_P2;PMS_P1;PMS_P2;Temp;Humidity;BMP_temperature;BMP_pressure;BME280_temperature;BME280_humidity;BME280_pressure;Samples;Min_cycle;Max_cycle;Signal;HPM_P1;HPM_P2
2023/01/30 00:01:43;;;;;;;10.73;9.93;;;4.30;99.90;;;;;;5052619;28;20175;-65
2023/01/30 00:04:13;;;;;;;13.23;11.13;;;4.20;99.90;;;;;;5052896;28;20629;-65
2023/01/30 00:06:40;;;;;;;11.07;10.10;;;4.30;99.90;;;;;;5052461;28;20195;-65
2023/01/30 00:09:06;;;;;;;24.23;11.80;;;4.30;99.90;;;;;;5052636;28;20195;-66
2023/01/30 00:11:32;;;;;;;11.33;10.33;;;4.30;99.90;;;;;;5052460;28;20217;-66
2023/01/30 00:13:58;;;;;;;13.53;9.83;;;4.30;99.90;;;;;;5052617;28;20179;-65
2023/01/30 00:16:24;;;;;;;11.97;10.87;;;4.30;99.90;;;;;;5052283;28;20232;-65
2023/01/30 00:18:50;;;;;;;10.87;9.80;;;4.30;99.90;;;;;;5052492;28;20242;-64
2023/01/30 00:21:16;;;;;;;8.83;8.17;;;4.40;99.90;;;;;;5052184;28;20174;-65
2023/01/30 00:23:42;;;;;;;9.30;8.50;;;4.40;99.90;;;;;;5050934;28;20170;-65
2023/01/30 00:26:08;;;;;;;8.17;7.47;;;4.40;99.90;;;;;;5052404;28;20183;-65
2023/01/30 00:28:34;;;;;;;12.77;11.63;;;4.40;99.90;;;;;;5052029;28;20560;-65
2023/01/30 00:31:00;;;;;;;10.23;9.37;;;4.40;99.90;;;;;;5051981;28;20171;-65
2023/01/30 00:33:26;;;;;;;9.33;8.53;;;4.50;99.90;;;;;;5052258;28;20182;-65
2023/01/30 00:35:54;;;;;;;9.43;8.53;;;4.50;99.90;;;;;;5052089;28;20202;-65
2023/01/30 00:38:20;;;;;;;9.13;8.50;;;4.50;99.90;;;;;;5052188;28;20183;-62
2023/01/30 00:40:46;;;;;;;7.97;7.47;;;4.60;99.90;;;;;;5051768;28;20608;-64
2023/01/30 00:48:45;;;;;;;9.30;8.53;;;4.70;99.90;;;;;;5031954;28;20183;-65
2023/01/30 00:51:11;;;;;;;10.03;9.17;;;4.70;99.90;;;;;;5031644;28;20187;-65
2023/01/30 00:53:37;;;;;;;10.03;9.10;;;4.70;99.90;;;;;;5032120;28;20555;-65
2023/01/30 00:56:03;;;;;;;11.03;10.03;;;4.70;99.90;;;;;;5032031;28;20291;-65
2023/01/30 00:58:28;;;;;;;8.97;8.27;;;4.80;99.90;;;;;;5031763;28;20537;-65
2023/01/30 01:00:55;;;;;;;10.13;8.63;;;4.80;99.90;;;;;;5031664;28;20212;-65
2023/01/30 01:03:20;;;;;;;10.90;9.80;;;4.90;99.90;;;;;;5032566;28;20611;-64
2023/01/30 01:05:46;;;;;;;12.67;9.70;;;4.80;99.90;;;;;;5031958;28;20205;-65
2023/01/30 01:08:12;;;;;;;13.20;10.07;;;4.80;99.90;;;;;;5031702;28;20191;-65
2023/01/30 01:10:37;;;;;;;10.73;9.33;;;4.80;99.90;;;;;;5031267;28;20629;-65
2023/01/30 01:13:05;;;;;;;11.33;8.73;;;4.80;99.90;;;;;;5031827;28;20183;-66
2023/01/30 01:15:32;;;;;;;10.70;9.53;;;4.80;99.90;;;;;;5031890;28;20669;-65
2023/01/30 01:17:57;;;;;;;8.47;7.83;;;4.80;99.90;;;;;;5031771;28;20195;-64
2023/01/30 01:20:24;;;;;;;9.23;8.50;;;4.80;99.90;;;;;;5031234;28;20233;-64
2023/01/30 01:22:54;;;;;;;9.80;8.87;;;4.90;99.90;;;;;;5031737;28;20626;-64
2023/01/30 01:25:21;;;;;;;12.13;8.57;;;4.90;99.90;;;;;;5031681;28;20179;-65
2023/01/30 01:27:47;;;;;;;9.93;9.30;;;4.90;99.90;;;;;;5046948;28;20199;-65
2023/01/30 01:30:13;;;;;;;12.57;11.47;;;4.90;99.90;;;;;;5031456;28;20183;-65
2023/01/30 01:32:39;;;;;;;11.43;10.27;;;4.90;99.90;;;;;;5031433;28;20548;-65
2023/01/30 01:35:05;;;;;;;12.47;11.77;;;4.90;99.90;;;;;;5034404;28;20615;-64
2023/01/30 01:37:30;;;;;;;12.00;11.20;;;4.90;99.90;;;;;;5035622;28;20187;-65
2023/01/30 01:42:41;;;;;;;10.83;9.57;;;4.90;99.90;;;;;;5035699;28;20182;-64
2023/01/30 01:45:12;;;;;;;9.20;8.33;;;4.90;99.90;;;;;;5049495;28;20178;-64
2023/01/30 01:48:00;;;;;;;22.47;12.00;;;4.90;99.90;;;;;;5055409;28;20187;-65
2023/01/30 01:50:52;;;;;;;24.67;22.93;;;5.00;99.90;;;;;;5054822;28;20229;-65
2023/01/30 01:53:20;;;;;;;13.33;11.03;;;5.00;99.90;;;;;;5055578;28;20251;-65
2023/01/30 01:55:51;;;;;;;11.77;10.87;;;5.10;99.90;;;;;;5055229;28;20699;-64
2023/01/30 01:58:33;;;;;;;14.03;12.90;;;5.10;99.90;;;;;;5055339;28;20724;-65
2023/01/30 02:01:00;;;;;;;11.03;9.93;;;5.10;99.90;;;;;;5055029;28;20167;-65
2023/01/30 02:03:29;;;;;;;13.43;10.63;;;5.10;99.90;;;;;;5055088;28;20637;-65
2023/01/30 02:05:59;;;;;;;9.60;8.23;;;5.10;99.90;;;;;;5055162;28;20258;-65
2023/01/30 02:08:37;;;;;;;9.87;8.90;;;5.10;99.90;;;;;;5054869;28;20632;-66
2023/01/30 02:11:17;;;;;;;11.17;9.97;;;5.10;99.90;;;;;;5054726;28;20174;-65
2023/01/30 02:13:45;;;;;;;9.13;8.30;;;5.10;99.90;;;;;;5054840;28;20182;-65
2023/01/30 02:16:10;;;;;;;12.97;8.97;;;5.10;99.90;;;;;;5055022;28;20215;-65
2023/01/30 02:18:40;;;;;;;12.43;10.03;;;5.10;99.90;;;;;;5054487;28;20559;-65
2023/01/30 02:21:24;;;;;;;9.27;8.40;;;5.10;99.90;;;;;;5054389;28;20202;-65
2023/01/30 02:24:27;;;;;;;11.30;10.20;;;5.10;99.90;;;;;;5054575;28;20177;-65
2023/01/30 02:27:17;;;;;;;14.30;9.97;;;5.10;99.90;;;;;;5054487;28;20244;-66
2023/01/30 02:30:20;;;;;;;10.80;9.80;;;5.10;99.90;;;;;;5054231;28;20179;-65
2023/01/30 02:33:02;;;;;;;10.40;8.87;;;5.00;99.90;;;;;;5054277;28;20671;-65
2023/01/30 02:35:49;;;;;;;14.90;13.77;;;5.00;99.90;;;;;;5054336;28;20217;-65
2023/01/30 02:38:25;;;;;;;21.83;20.33;;;4.90;99.90;;;;;;5057360;28;20587;-65
2023/01/30 02:40:57;;;;;;;10.97;10.23;;;4.90;99.90;;;;;;5058934;28;20228;-65
2023/01/30 02:43:37;;;;;;;12.90;11.73;;;4.90;99.90;;;;;;5057334;28;20174;-64
2023/01/30 02:46:18;;;;;;;15.37;13.80;;;4.90;99.90;;;;;;5074286;28;20178;-65
2023/01/30 02:48:58;;;;;;;9.57;8.87;;;4.90;99.90;;;;;;5068148;28;20175;-63
2023/01/30 02:51:29;;;;;;;8.90;8.10;;;4.90;99.90;;;;;;5054082;28;20547;-65
2023/01/30 02:53:55;;;;;;;9.53;8.63;;;5.00;99.90;;;;;;5060344;28;20182;-65
2023/01/30 02:56:20;;;;;;;11.00;9.20;;;5.00;99.90;;;;;;5073880;28;20174;-65
2023/01/30 02:58:52;;;;;;;16.27;11.30;;;5.00;99.90;;;;;;5069238;28;20193;-65
2023/01/30 03:01:55;;;;;;;14.83;9.87;;;5.00;99.90;;;;;;5053743;28;20198;-65
2023/01/30 03:04:45;;;;;;;10.83;9.80;;;5.00;99.90;;;;;;5062385;28;20189;-65
2023/01/30 03:07:38;;;;;;;9.77;8.90;;;5.00;99.90;;;;;;5073917;28;20494;-64
2023/01/30 03:10:17;;;;;;;10.63;9.60;;;5.00;99.90;;;;;;5059385;28;20183;-65
2023/01/30 03:12:57;;;;;;;13.47;12.30;;;5.00;99.90;;;;;;5053597;28;20644;-65
2023/01/30 03:15:34;;;;;;;35.70;34.00;;;5.00;99.90;;;;;;5069285;28;20217;-64
2023/01/30 03:18:01;;;;;;;20.97;16.07;;;5.00;99.90;;;;;;5073361;28;20220;-64
2023/01/30 03:20:26;;;;;;;11.13;10.10;;;5.00;99.90;;;;;;5053122;28;20175;-64
2023/01/30 03:22:54;;;;;;;9.97;9.13;;;5.10;99.90;;;;;;5053610;28;20213;-64
2023/01/30 03:25:22;;;;;;;25.70;9.50;;;5.10;99.90;;;;;;5072257;28;20729;-65
2023/01/30 03:27:52;;;;;;;12.53;9.93;;;5.20;99.90;;;;;;5073573;28;20629;-64
2023/01/30 03:30:17;;;;;;;11.93;10.93;;;5.20;99.90;;;;;;5055064;28;20179;-65
2023/01/30 03:32:43;;;;;;;9.80;9.10;;;5.30;99.90;;;;;;5065146;28;20239;-64
2023/01/30 03:35:09;;;;;;;9.70;8.80;;;5.30;99.90;;;;;;5073328;28;20205;-63
2023/01/30 03:37:34;;;;;;;10.27;9.13;;;5.30;99.90;;;;;;5062578;28;20742;-64
2023/01/30 03:40:00;;;;;;;10.10;9.17;;;5.40;99.90;;;;;;5053035;28;20171;-64
2023/01/30 03:42:26;;;;;;;8.77;7.97;;;5.40;99.90;;;;;;5060831;28;20177;-64
2023/01/30 03:44:52;;;;;;;10.60;9.50;;;5.40;99.90;;;;;;5073158;28;20327;-64
2023/01/30 03:47:17;;;;;;;11.30;10.47;;;5.40;99.90;;;;;;5066274;28;20202;-65
2023/01/30 03:49:43;;;;;;;13.97;10.37;;;5.50;99.90;;;;;;5052985;28;20191;-64
2023/01/30 03:52:08;;;;;;;12.20;10.97;;;5.50;99.90;;;;;;5054140;28;20191;-63
2023/01/30 03:54:34;;;;;;;15.70;14.83;;;5.50;99.90;;;;;;5071555;28;20407;-64
2023/01/30 03:56:59;;;;;;;8.30;7.60;;;5.50;99.90;;;;;;5072501;28;20199;-64
2023/01/30 03:59:25;;;;;;;12.77;10.47;;;5.50;99.90;;;;;;5072666;28;20632;-65
2023/01/30 04:01:50;;;;;;;8.20;7.47;;;5.50;99.90;;;;;;5072125;28;20174;-64
2023/01/30 04:04:16;;;;;;;9.30;8.57;;;5.40;99.90;;;;;;5052796;28;20220;-65
2023/01/30 04:06:42;;;;;;;9.23;8.33;;;5.50;99.90;;;;;;5052388;28;20244;-65
2023/01/30 04:09:07;;;;;;;9.47;8.67;;;5.40;99.90;;;;;;5071076;28;20213;-65
2023/01/30 04:11:33;;;;;;;8.03;7.47;;;5.40;99.90;;;;;;5072501;28;20178;-64
2023/01/30 04:13:58;;;;;;;12.03;8.50;;;5.40;99.90;;;;;;5055431;28;20186;-64
2023/01/30 04:16:26;;;;;;;8.43;7.63;;;5.30;99.90;;;;;;5052520;28;20699;-64
2023/01/30 04:18:51;;;;;;;13.83;10.83;;;5.40;99.90;;;;;;5068178;28;20658;-65
2023/01/30 04:21:17;;;;;;;10.77;9.63;;;5.40;99.90;;;;;;5072208;28;20170;-65
2023/01/30 04:23:43;;;;;;;10.70;9.63;;;5.30;99.90;;;;;;5058398;28;20198;-64
2023/01/30 04:26:09;;;;;;;12.30;11.20;;;5.40;99.90;;;;;;5061571;28;20583;-64
2023/01/30 04:28:35;;;;;;;20.03;18.63;;;5.30;99.90;;;;;;5072045;28;20198;-65
2023/01/30 04:31:01;;;;;;;8.97;8.20;;;5.30;99.90;;;;;;5064197;28;20679;-64
2023/01/30 04:33:27;;;;;;;12.67;11.83;;;5.30;99.90;;;;;;5052175;28;20183;-65
2023/01/30 04:35:54;;;;;;;8.17;7.47;;;5.30;99.90;;;;;;5057910;28;20672;-65
2023/01/30 04:38:20;;;;;;;11.30;10.23;;;5.20;99.90;;;;;;5071936;28;20190;-65
2023/01/30 04:40:53;;;;;;;11.03;9.97;;;5.10;99.90;;;;;;5066773;28;20636;-65
2023/01/30 04:43:20;;;;;;;11.20;10.13;;;5.10;99.90;;;;;;5052112;28;20238;-65
2023/01/30 04:45:47;;;;;;;10.53;9.63;;;5.10;99.90;;;;;;5055975;28;20273;-65
2023/01/30 04:48:14;;;;;;;8.30;7.73;;;5.10;99.90;;;;;;5071951;28;20272;-65
2023/01/30 04:50:40;;;;;;;9.90;9.20;;;5.10;99.90;;;;;;5068649;28;21598;-64
2023/01/30 04:53:06;;;;;;;10.10;9.30;;;5.10;99.90;;;;;;5052264;28;20171;-65
2023/01/30 04:55:31;;;;;;;12.67;8.90;;;5.10;99.90;;;;;;5070595;28;20305;-65
2023/01/30 04:57:57;;;;;;;8.50;7.73;;;5.00;99.90;;;;;;5071831;28;20260;-65
2023/01/30 05:00:23;;;;;;;10.50;9.60;;;5.00;99.90;;;;;;5052452;28;20178;-65
2023/01/30 05:02:49;;;;;;;12.77;8.23;;;5.10;99.90;;;;;;5051614;28;20174;-64
2023/01/30 05:05:14;;;;;;;11.50;10.67;;;5.10;99.90;;;;;;5068791;28;20236;-64
2023/01/30 05:07:40;;;;;;;9.57;8.57;;;5.10;99.90;;;;;;5071751;28;20242;-64
2023/01/30 05:10:06;;;;;;;10.57;7.87;;;5.10;99.90;;;;;;5054004;28;20273;-65
2023/01/30 05:12:32;;;;;;;9.13;8.23;;;5.10;99.90;;;;;;5051338;28;20174;-65
2023/01/30 05:14:57;;;;;;;10.40;9.43;;;5.10;99.90;;;;;;5065073;28;20315;-65
2023/01/30 05:17:23;;;;;;;10.40;9.27;;;5.10;99.90;;;;;;5068839;28;20240;-65
2023/01/30 05:19:48;;;;;;;8.03;7.37;;;5.10;99.90;;;;;;5051265;28;20232;-65
2023/01/30 05:22:14;;;;;;;13.37;9.63;;;5.10;99.90;;;;;;5060847;28;20712;-65
2023/01/30 05:24:40;;;;;;;8.47;7.50;;;5.10;99.90;;;;;;5071338;28;20174;-65
2023/01/30 05:27:05;;;;;;;9.97;8.93;;;5.10;99.90;;;;;;5063494;28;20210;-64
2023/01/30 05:29:31;;;;;;;8.17;7.33;;;5.10;99.90;;;;;;5051072;28;20187;-65
2023/01/30 05:31:56;;;;;;;11.97;8.10;;;5.10;99.90;;;;;;5057136;28;20185;-65
2023/01/30 05:34:22;;;;;;;8.97;8.27;;;5.10;99.90;;;;;;5071305;28;20589;-65
2023/01/30 05:36:47;;;;;;;8.90;8.10;;;5.10;99.90;;;;;;5066731;28;20680;-65
2023/01/30 05:39:13;;;;;;;8.93;7.97;;;5.10;99.90;;;;;;5051149;28;20175;-65
2023/01/30 05:41:39;;;;;;;8.37;7.83;;;5.10;99.90;;;;;;5053364;28;20295;-65
2023/01/30 05:44:05;;;;;;;7.37;6.90;;;5.10;99.90;;;;;;5071402;28;20174;-65
2023/01/30 05:46:30;;;;;;;8.73;7.93;;;5.10;99.90;;;;;;5070156;28;20178;-66
2023/01/30 05:48:56;;;;;;;7.67;7.07;;;5.10;99.90;;;;;;5051227;28;20171;-65
2023/01/30 05:51:23;;;;;;;7.77;7.27;;;5.10;99.90;;;;;;5068980;28;20186;-66
2023/01/30 05:53:50;;;;;;;9.57;8.77;;;5.10;99.90;;;;;;5070438;28;20514;-66
2023/01/30 05:56:17;;;;;;;9.67;8.87;;;4.80;99.90;;;;;;5053615;28;20260;-65
2023/01/30 05:58:42;;;;;;;6.97;6.53;;;5.10;99.90;;;;;;5050976;28;20258;-65
2023/01/30 06:01:11;;;;;;;7.93;7.33;;;5.10;99.90;;;;;;5066434;28;20286;-65
2023/01/30 06:03:36;;;;;;;8.47;7.67;;;5.10;99.90;;;;;;5070973;28;20668;-65
2023/01/30 06:06:04;;;;;;;8.50;7.70;;;5.10;99.90;;;;;;5056545;28;20236;-65
2023/01/30 06:08:30;;;;;;;9.03;8.43;;;5.20;99.90;;;;;;5050719;28;20191;-65
2023/01/30 06:11:01;;;;;;;8.50;7.90;;;5.20;99.90;;;;;;5063173;28;20240;-65
2023/01/30 06:13:26;;;;;;;7.37;6.93;;;5.20;99.90;;;;;;5071345;28;20551;-65
2023/01/30 06:15:52;;;;;;;8.20;7.53;;;5.30;99.90;;;;;;5058970;28;20206;-65
2023/01/30 06:18:17;;;;;;;8.67;7.93;;;5.30;99.90;;;;;;5060284;28;20202;-65
2023/01/30 06:20:51;;;;;;;9.60;7.53;;;5.30;99.90;;;;;;5072457;28;20178;-64
2023/01/30 06:23:17;;;;;;;9.87;9.10;;;5.30;99.90;;;;;;5065656;28;20186;-65
2023/01/30 06:25:44;;;;;;;9.43;8.60;;;5.40;99.90;;;;;;5054585;28;20189;-64
2023/01/30 06:28:10;;;;;;;8.33;7.60;;;5.40;99.90;;;;;;5061758;28;20263;-65
2023/01/30 06:30:36;;;;;;;8.73;8.13;;;5.40;99.90;;;;;;5074049;28;20703;-65
2023/01/30 06:33:01;;;;;;;7.30;6.83;;;5.50;99.90;;;;;;5068651;28;20362;-65
2023/01/30 06:35:27;;;;;;;8.83;7.97;;;5.50;99.90;;;;;;5054302;28;20199;-65
2023/01/30 06:37:52;;;;;;;8.10;7.63;;;5.60;99.90;;;;;;5058013;28;20198;-64
2023/01/30 06:40:18;;;;;;;8.73;8.20;;;5.60;99.90;;;;;;5073746;28;20542;-65
2023/01/30 06:42:45;;;;;;;7.40;6.90;;;5.60;99.90;;;;;;5071237;28;20228;-65
2023/01/30 06:45:13;;;;;;;8.17;7.63;;;5.70;99.90;;;;;;5054269;28;20261;-65
2023/01/30 06:47:48;;;;;;;10.47;7.10;;;5.70;99.90;;;;;;5054236;28;20225;-64
2023/01/30 06:50:14;;;;;;;8.23;7.60;;;5.70;99.90;;;;;;5053953;28;20182;-65
2023/01/30 06:52:42;;;;;;;11.10;9.47;;;5.70;99.90;;;;;;5033946;28;20285;-65
2023/01/30 06:55:08;;;;;;;14.50;12.30;;;5.70;99.90;;;;;;5033386;28;20206;-65
2023/01/30 06:57:34;;;;;;;8.37;7.70;;;5.70;99.90;;;;;;5071613;28;20202;-64
2023/01/30 07:00:00;;;;;;;7.37;6.90;;;5.80;99.90;;;;;;5073799;28;20177;-65
2023/01/30 07:02:29;;;;;;;8.03;7.23;;;5.80;99.90;;;;;;5073231;28;20178;-65
2023/01/30 07:04:54;;;;;;;8.83;8.23;;;5.80;99.90;;;;;;5074388;28;20257;-66
2023/01/30 07:07:20;;;;;;;6.87;6.40;;;5.80;99.90;;;;;;5057921;28;20287;-66
2023/01/30 07:09:46;;;;;;;15.37;7.63;;;5.80;99.90;;;;;;5053513;28;20186;-65
2023/01/30 07:12:11;;;;;;;8.13;7.57;;;5.80;99.90;;;;;;5067558;28;20189;-66
2023/01/30 07:14:37;;;;;;;7.60;7.10;;;5.90;99.90;;;;;;5073645;28;20201;-65
2023/01/30 07:17:02;;;;;;;8.80;8.03;;;5.90;99.90;;;;;;5071762;28;20281;-65
2023/01/30 07:19:28;;;;;;;7.70;7.30;;;5.90;99.90;;;;;;5073516;28;20174;-63
2023/01/30 07:21:53;;;;;;;8.67;8.07;;;5.90;99.90;;;;;;5060276;28;20697;-65
2023/01/30 07:24:19;;;;;;;7.37;6.87;;;5.90;99.90;;;;;;5053707;28;20244;-65
2023/01/30 07:26:47;;;;;;;7.77;7.27;;;5.90;99.90;;;;;;5053266;28;20209;-65
2023/01/30 07:29:12;;;;;;;6.80;6.40;;;5.90;99.90;;;;;;5053166;28;20182;-65
2023/01/30 07:31:38;;;;;;;8.37;7.70;;;5.90;99.90;;;;;;5070225;28;20174;-64
2023/01/30 07:34:03;;;;;;;7.60;7.07;;;5.90;99.90;;;;;;5073347;28;20182;-64
2023/01/30 07:36:32;;;;;;;6.77;6.37;;;6.00;99.90;;;;;;5071278;28;20178;-65
2023/01/30 07:38:58;;;;;;;6.60;6.30;;;5.90;99.90;;;;;;5073173;28;20185;-65
2023/01/30 07:41:24;;;;;;;7.70;7.00;;;5.90;99.90;;;;;;5072475;28;20182;-65
2023/01/30 07:43:49;;;;;;;8.07;7.40;;;5.90;99.90;;;;;;5073242;28;20177;-65
2023/01/30 07:46:15;;;;;;;7.60;7.00;;;5.90;99.90;;;;;;5058417;28;20253;-65
2023/01/30 07:48:43;;;;;;;7.27;6.87;;;6.00;99.90;;;;;;5052715;28;20612;-65
2023/01/30 07:51:09;;;;;;;7.13;6.67;;;6.00;99.90;;;;;;5064444;28;20198;-65
2023/01/30 07:53:34;;;;;;;6.80;6.30;;;6.00;99.90;;;;;;5069067;28;20175;-65
2023/01/30 07:56:08;;;;;;;7.40;6.90;;;5.90;99.90;;;;;;5057588;28;20296;-65
2023/01/30 07:58:34;;;;;;;7.07;6.57;;;6.00;99.90;;;;;;5057421;28;20676;-65
2023/01/30 08:01:00;;;;;;;8.83;8.03;;;6.00;99.90;;;;;;5052601;28;20245;-65
2023/01/30 08:03:26;;;;;;;8.03;7.43;;;6.00;99.90;;;;;;5052681;28;20558;-65
2023/01/30 08:05:52;;;;;;;8.67;7.77;;;6.10;99.90;;;;;;5059488;28;20257;-66
2023/01/30 08:08:19;;;;;;;8.93;8.13;;;6.10;99.90;;;;;;5072606;28;20278;-65
2023/01/30 08:10:47;;;;;;;7.70;7.03;;;6.10;99.90;;;;;;5066172;28;20273;-65
2023/01/30 08:13:13;;;;;;;7.00;6.60;;;6.10;99.90;;;;;;5065373;28;20189;-64
2023/01/30 08:15:38;;;;;;;8.63;7.70;;;6.10;99.90;;;;;;5062704;28;20202;-64
2023/01/30 08:18:06;;;;;;;9.60;8.07;;;6.10;99.90;;;;;;5052395;28;20195;-65
2023/01/30 08:20:32;;;;;;;7.53;6.97;;;6.10;99.90;;;;;;5059714;28;20178;-65
2023/01/30 08:22:58;;;;;;;8.07;7.47;;;6.20;99.90;;;;;;5072126;28;20797;-64
2023/01/30 08:25:24;;;;;;;11.07;7.60;;;6.20;99.90;;;;;;5070607;28;20181;-64
2023/01/30 08:27:50;;;;;;;6.80;6.40;;;6.20;99.90;;;;;;5072119;28;20569;-64
2023/01/30 08:30:17;;;;;;;7.53;6.87;;;6.10;99.90;;;;;;5067097;28;20211;-64
2023/01/30 08:32:43;;;;;;;9.50;8.73;;;6.10;99.90;;;;;;5052014;28;20171;-65
2023/01/30 08:35:09;;;;;;;8.30;7.80;;;6.10;99.90;;;;;;5054830;28;20202;-65
2023/01/30 08:37:35;;;;;;;11.20;8.47;;;6.00;99.90;;;;;;5063005;28;20285;-65
2023/01/30 08:40:00;;;;;;;8.07;7.37;;;6.00;99.90;;;;;;5052208;28;20727;-64
2023/01/30 08:42:26;;;;;;;9.23;8.40;;;6.10;99.90;;;;;;5053599;28;20179;-64
2023/01/30 08:44:51;;;;;;;8.60;7.90;;;6.30;99.90;;;;;;5051878;28;20183;-65
2023/01/30 08:47:17;;;;;;;7.63;7.03;;;6.40;99.90;;;;;;5070493;28;20207;-64
2023/01/30 08:49:43;;;;;;;9.67;8.40;;;6.40;99.90;;;;;;5071438;28;20186;-65
2023/01/30 08:52:09;;;;;;;8.27;7.43;;;6.40;99.90;;;;;;5054369;28;20324;-65
2023/01/30 08:54:34;;;;;;;8.40;7.77;;;6.60;99.90;;;;;;5051002;28;20241;-65
2023/01/30 08:57:00;;;;;;;9.10;8.30;;;7.00;99.90;;;;;;5066804;28;20275;-65
2023/01/30 08:59:26;;;;;;;8.47;7.87;;;7.20;99.90;;;;;;5067003;28;20178;-65
2023/01/30 09:01:51;;;;;;;7.47;7.07;;;7.30;99.90;;;;;;5051726;28;20181;-64
2023/01/30 09:04:17;;;;;;;8.77;8.00;;;7.20;99.90;;;;;;5052202;28;20235;-65
2023/01/30 09:06:42;;;;;;;7.63;6.93;;;7.30;99.90;;;;;;5071359;28;20190;-64
2023/01/30 09:09:08;;;;;;;6.90;6.50;;;7.60;99.90;;;;;;5070459;28;20175;-65
2023/01/30 09:11:34;;;;;;;5.57;5.30;;;7.80;99.90;;;;;;5051353;28;20181;-65
2023/01/30 09:13:59;;;;;;;7.27;6.77;;;8.10;99.90;;;;;;5054522;28;20182;-64
2023/01/30 09:16:25;;;;;;;6.53;6.03;;;8.20;99.90;;;;;;5070964;28;20255;-65
2023/01/30 09:18:50;;;;;;;7.73;7.10;;;8.30;99.90;;;;;;5065372;28;20253;-64
2023/01/30 09:21:16;;;;;;;7.00;6.33;;;8.20;99.90;;;;;;5052090;28;20644;-64
2023/01/30 09:23:42;;;;;;;8.17;7.43;;;8.20;99.90;;;;;;5051349;28;20209;-64
2023/01/30 09:26:07;;;;;;;7.03;6.40;;;8.10;99.90;;;;;;5051215;28;20185;-65
2023/01/30 09:28:34;;;;;;;8.03;7.33;;;8.20;99.90;;;;;;5050981;28;20198;-64
2023/01/30 09:31:00;;;;;;;6.33;6.00;;;8.00;99.90;;;;;;5050794;28;20178;-65
2023/01/30 09:33:27;;;;;;;8.77;5.90;;;8.00;99.90;;;;;;5051140;28;20265;-65
2023/01/30 09:35:53;;;;;;;7.93;7.27;;;8.00;99.90;;;;;;5050380;28;20214;-64
2023/01/30 09:38:19;;;;;;;23.43;22.40;;;8.20;99.90;;;;;;5051150;28;20199;-65
2023/01/30 09:40:56;;;;;;;6.67;6.23;;;8.10;99.90;;;;;;5058604;28;20174;-64
2023/01/30 09:43:37;;;;;;;5.57;5.37;;;8.00;99.90;;;;;;5071241;28;20175;-65
2023/01/30 09:46:45;;;;;;;8.30;7.90;;;8.10;99.90;;;;;;5063185;28;20178;-64
2023/01/30 09:49:37;;;;;;;11.37;10.77;;;8.30;99.90;;;;;;5057832;28;20191;-64
2023/01/30 09:52:25;;;;;;;9.33;8.17;;;8.30;99.90;;;;;;5056869;28;20679;-64
2023/01/30 09:54:59;;;;;;;8.03;6.70;;;8.20;99.90;;;;;;5050186;28;20210;-64
2023/01/30 09:57:25;;;;;;;8.23;7.73;;;8.30;99.90;;;;;;5071183;28;20289;-64
2023/01/30 09:59:56;;;;;;;6.80;6.30;;;8.50;99.90;;;;;;5074686;28;20250;-64
2023/01/30 10:02:40;;;;;;;49.57;46.83;;;8.50;99.90;;;;;;5059237;28;20179;-65
2023/01/30 10:05:06;;;;;;;7.90;5.50;;;8.70;99.90;;;;;;5054853;28;20181;-65
2023/01/30 10:07:50;;;;;;;5.10;4.90;;;8.80;99.90;;;;;;5070668;28;20202;-64
2023/01/30 10:10:31;;;;;;;28.70;27.20;;;9.00;99.90;;;;;;5074536;28;20170;-64
2023/01/30 10:13:21;;;;;;;5.97;5.57;;;9.10;90.40;;;;;;5055140;28;20745;-64
2023/01/30 10:16:15;;;;;;;6.70;6.07;;;9.00;66.90;;;;;;5054553;28;20214;-64
2023/01/30 10:18:54;;;;;;;8.47;8.00;;;8.80;99.90;;;;;;5056624;28;20236;-65
2023/01/30 10:21:30;;;;;;;7.20;6.70;;;8.60;88.60;;;;;;5074123;28;20178;-64
2023/01/30 10:24:04;;;;;;;6.87;5.70;;;8.40;99.90;;;;;;5070791;28;20519;-63
2023/01/30 10:26:30;;;;;;;8.73;8.17;;;8.20;99.90;;;;;;5054379;28;20174;-64
2023/01/30 10:29:07;;;;;;;87.00;83.30;;;8.10;88.80;;;;;;5057389;28;20174;-64
2023/01/30 10:31:56;;;;;;;14.23;7.67;;;8.00;96.30;;;;;;5074185;28;20196;-64
2023/01/30 10:34:28;;;;;;;8.30;7.90;;;8.10;99.90;;;;;;5073957;28;20244;-65
2023/01/30 10:36:59;;;;;;;5.80;5.50;;;8.10;96.70;;;;;;5074166;28;20201;-64
2023/01/30 10:39:38;;;;;;;13.77;5.70;;;8.10;99.90;;;;;;5069393;28;20178;-64
2023/01/30 10:42:11;;;;;;;9.23;8.77;;;8.10;59.80;;;;;;5054405;28;20177;-63
2023/01/30 10:44:39;;;;;;;11.37;10.87;;;8.10;98.90;;;;;;5060997;28;20178;-65
2023/01/30 10:47:31;;;;;;;7.37;6.83;;;8.10;93.50;;;;;;5074173;28;20205;-64
2023/01/30 10:50:10;;;;;;;13.23;6.93;;;8.10;99.90;;;;;;5064132;28;20183;-66
2023/01/30 10:52:48;;;;;;;8.97;7.67;;;8.00;92.20;;;;;;5053785;28;20200;-63
2023/01/30 10:55:28;;;;;;;21.47;20.50;;;8.00;97.70;;;;;;5064027;28;20616;-63
2023/01/30 10:58:10;;;;;;;7.37;5.17;;;8.10;72.80;;;;;;5070011;28;20186;-64
2023/01/30 11:00:44;;;;;;;13.37;12.43;;;8.10;91.50;;;;;;5053469;28;20195;-64
2023/01/30 11:03:20;;;;;;;7.73;7.43;;;8.10;74.60;;;;;;5055082;28;20688;-64
2023/01/30 11:05:48;;;;;;;5.97;5.53;;;8.00;52.30;;;;;;5073496;28;20212;-63
2023/01/30 11:08:34;;;;;;;6.10;5.80;;;7.90;78.50;;;;;;5069327;28;20206;-65
2023/01/30 11:11:00;;;;;;;8.27;7.90;;;7.90;67.00;;;;;;5084899;28;20270;-64
2023/01/30 11:13:31;;;;;;;6.17;5.70;;;7.80;46.80;;;;;;5061540;28;20231;-64
2023/01/30 11:16:05;;;;;;;8.00;7.60;;;7.80;80.90;;;;;;5073662;28;20213;-64
2023/01/30 11:18:31;;;;;;;6.17;5.77;;;7.80;50.10;;;;;;5066158;28;20234;-64
2023/01/30 11:21:06;;;;;;;6.63;6.20;;;7.80;54.90;;;;;;5063069;28;20179;-64
2023/01/30 11:23:32;;;;;;;8.23;6.60;;;7.80;64.70;;;;;;5053513;28;20637;-64
2023/01/30 11:25:58;;;;;;;7.80;7.50;;;7.70;62.40;;;;;;5053454;28;20189;-64
2023/01/30 11:28:25;;;;;;;9.90;9.50;;;7.70;40.00;;;;;;5053432;28;20202;-64
2023/01/30 11:30:59;;;;;;;11.30;6.03;;;7.70;44.80;;;;;;5053187;28;20185;-63
2023/01/30 11:33:37;;;;;;;6.00;5.73;;;7.70;73.00;;;;;;5053490;28;20207;-64
2023/01/30 11:36:33;;;;;;;9.57;9.17;;;7.60;70.00;;;;;;5053627;28;20664;-63
2023/01/30 11:39:17;;;;;;;6.90;6.40;;;7.60;55.80;;;;;;5053228;28;20214;-63
2023/01/30 11:42:03;;;;;;;7.27;6.97;;;7.70;49.80;;;;;;5052936;28;20209;-63
2023/01/30 11:44:34;;;;;;;6.77;6.47;;;7.70;44.50;;;;;;5053105;28;20194;-64
2023/01/30 11:47:07;;;;;;;7.73;6.63;;;7.70;44.80;;;;;;5052789;28;20194;-64
2023/01/30 11:49:38;;;;;;;8.30;7.47;;;7.80;54.30;;;;;;5052769;28;20171;-64
2023/01/30 11:52:05;;;;;;;6.17;5.87;;;7.80;45.30;;;;;;5066231;28;20694;-62
2023/01/30 11:54:38;;;;;;;11.73;10.93;;;7.90;46.90;;;;;;5056047;28;20547;-63
2023/01/30 11:57:09;;;;;;;7.00;6.70;;;7.90;30.00;;;;;;5053856;28;20191;-63
2023/01/30 11:59:53;;;;;;;5.53;5.30;;;7.90;36.60;;;;;;5052395;28;20175;-64
2023/01/30 12:02:32;;;;;;;10.43;6.87;;;8.00;30.00;;;;;;5052905;28;20194;-64
2023/01/30 12:05:15;;;;;;;38.67;37.07;;;8.00;25.40;;;;;;5052903;28;20232;-64
2023/01/30 12:07:45;;;;;;;20.70;9.03;;;8.00;13.20;;;;;;5052657;28;20202;-64
2023/01/30 12:10:41;;;;;;;7.30;6.73;;;8.00;18.70;;;;;;5070035;28;20181;-64
2023/01/30 12:13:37;;;;;;;14.53;13.93;;;8.00;24.60;;;;;;5070130;28;20218;-64
2023/01/30 12:16:17;;;;;;;7.30;6.80;;;8.00;7.50;;;;;;5070586;28;20576;-64
2023/01/30 12:19:35;;;;;;;24.97;23.20;;;8.00;20.00;;;;;;5065256;28;20205;-62
2023/01/30 12:22:21;;;;;;;9.70;9.30;;;7.90;1.00;;;;;;5028662;28;20564;-64
2023/01/30 12:25:18;;;;;;;8.73;7.77;;;7.70;31.50;;;;;;5039973;28;20193;-64
2023/01/30 12:28:14;;;;;;;8.93;6.27;;;7.60;49.80;;;;;;5053550;28;20210;-64
2023/01/30 12:30:43;;;;;;;6.47;6.17;;;7.60;54.30;;;;;;5051586;28;20202;-64
2023/01/30 12:33:14;;;;;;;7.40;7.00;;;7.60;38.00;;;;;;5061132;28;20255;-64
2023/01/30 12:35:48;;;;;;;6.53;6.23;;;7.70;24.50;;;;;;5071817;28;20213;-64
2023/01/30 12:38:35;;;;;;;11.63;11.13;;;7.70;9.00;;;;;;5068733;28;20655;-64
2023/01/30 12:41:41;;;;;;;27.17;26.00;;;7.60;15.80;;;;;;5052225;28;20224;-64
2023/01/30 12:44:18;;;;;;;10.47;9.67;;;7.60;23.20;;;;;;5052760;28;20190;-64
2023/01/30 12:47:25;;;;;;;9.60;9.13;;;7.60;23.40;;;;;;5051963;28;20660;-64
2023/01/30 12:50:11;;;;;;;6.80;6.40;;;7.60;29.10;;;;;;5051685;28;20285;-64
2023/01/30 12:52:48;;;;;;;6.23;5.83;;;7.80;33.80;;;;;;5053114;28;20200;-64
2023/01/30 12:55:25;;;;;;;6.17;5.80;;;8.10;1.00;;;;;;5055236;28;20206;-63
2023/01/30 12:58:16;;;;;;;7.37;4.43;;;8.30;1.00;;;;;;5052050;28;20252;-64
2023/01/30 13:01:23;;;;;;;5.57;5.27;;;8.40;1.00;;;;;;5051393;28;20278;-64
2023/01/30 13:03:49;;;;;;;5.87;5.57;;;8.50;1.00;;;;;;5052281;28;20175;-64
2023/01/30 13:06:48;;;;;;;6.67;6.17;;;8.40;1.00;;;;;;5066280;28;20193;-64
2023/01/30 13:09:19;;;;;;;9.97;7.23;;;8.70;1.00;;;;;;5052183;28;20566;-63
2023/01/30 13:12:08;;;;;;;14.30;7.00;;;8.70;1.00;;;;;;5051490;28;20663;-64
2023/01/30 13:14:45;;;;;;;9.90;8.97;;;8.60;99.90;;;;;;5051712;28;20187;-64
2023/01/30 13:17:25;;;;;;;23.17;14.37;;;8.50;1.00;;;;;;5051555;28;20234;-63
2023/01/30 13:20:03;;;;;;;17.37;13.87;;;8.50;99.90;;;;;;5060139;28;20178;-64